sensor_id;sensor_type;location;lat;lon;timestamp;P1;durP1;ratioP1;P2;durP2;ratioP2
9934;SDS011;5006;41.828;23.478;2023-03-03T00:00:55;4.72;;;4.22;;
9934;SDS011;5006;41.828;23.478;2023-03-03T00:02:01;4.95;;;4.47;;
9934;SDS011;5006;41.828;23.478;2023-03-03T00:03:06;5.50;;;4.72;;
9934;SDS011;5006;41.828;23.478;2023-03-03T00:04:13;5.07;;;4.57;;
9934;SDS011;5006;41.828;23.478;2023-03-03T00:05:19;5.40;;;4.90;;
9934;SDS011;5006;41.828;23.478;2023-03-03T00:06:25;6.70;;;5.30;;
9934;SDS011;5006;41.828;23.478;2023-03-03T00:07:33;5.53;;;4.75;;
9934;SDS011;5006;41.828;23.478;2023-03-03T00:08:38;5.07;;;4.60;;
9934;SDS011;5006;41.828;23.478;2023-03-03T00:09:45;7.35;;;5.05;;
9934;SDS011;5006;41.828;23.478;2023-03-03T00:10:49;5.65;;;5.10;;
9934;SDS011;5006;41.828;23.478;2023-03-03T00:11:56;6.20;;;4.85;;
9934;SDS011;5006;41.828;23.478;2023-03-03T00:13:05;5.97;;;5.38;;
9934;SDS011;5006;41.828;23.478;2023-03-03T00:14:18;6.20;;;4.95;;
9934;SDS011;5006;41.828;23.478;2023-03-03T00:15:28;8.43;;;4.70;;
9934;SDS011;5006;41.828;23.478;2023-03-03T00:16:34;6.50;;;5.30;;
9934;SDS011;5006;41.828;23.478;2023-03-03T00:17:42;7.95;;;5.40;;
9934;SDS011;5006;41.828;23.478;2023-03-03T00:18:47;7.53;;;5.20;;
9934;SDS011;5006;41.828;23.478;2023-03-03T00:19:52;6.38;;;5.45;;
9934;SDS011;5006;41.828;23.478;2023-03-03T00:20:59;5.88;;;5.18;;
9934;SDS011;5006;41.828;23.478;2023-03-03T00:22:09;6.32;;;5.30;;
9934;SDS011;5006;41.828;23.478;2023-03-03T00:23:23;11.60;;;6.20;;
9934;SDS011;5006;41.828;23.478;2023-03-03T00:24:34;8.60;;;6.95;;
9934;SDS011;5006;41.828;23.478;2023-03-03T00:25:41;7.35;;;6.65;;
9934;SDS011;5006;41.828;23.478;2023-03-03T00:26:49;6.35;;;5.75;;
9934;SDS011;5006;41.828;23.478;2023-03-03T00:27:55;8.32;;;6.95;;
9934;SDS011;5006;41.828;23.478;2023-03-03T00:29:22;11.02;;;8.60;;
9934;SDS011;5006;41.828;23.478;2023-03-03T00:30:31;11.40;;;8.88;;
9934;SDS011;5006;41.828;23.478;2023-03-03T00:31:37;8.93;;;8.02;;
9934;SDS011;5006;41.828;23.478;2023-03-03T00:32:43;7.88;;;6.93;;
9934;SDS011;5006;41.828;23.478;2023-03-03T00:33:50;9.90;;;7.95;;
9934;SDS011;5006;41.828;23.478;2023-03-03T00:35:01;8.18;;;7.38;;
9934;SDS011;5006;41.828;23.478;2023-03-03T00:36:30;8.38;;;7.40;;
9934;SDS011;5006;41.828;23.478;2023-03-03T00:37:40;7.38;;;6.40;;
9934;SDS011;5006;41.828;23.478;2023-03-03T00:38:45;8.13;;;6.95;;
9934;SDS011;5006;41.828;23.478;2023-03-03T00:39:51;7.88;;;6.90;;
9934;SDS011;5006;41.828;23.478;2023-03-03T00:40:57;7.95;;;6.97;;
9934;SDS011;5006;41.828;23.478;2023-03-03T00:42:04;9.32;;;7.53;;
9934;SDS011;5006;41.828;23.478;2023-03-03T00:43:19;8.13;;;7.32;;
9934;SDS011;5006;41.828;23.478;2023-03-03T00:44:30;7.70;;;6.90;;
9934;SDS011;5006;41.828;23.478;2023-03-03T00:45:43;8.88;;;7.38;;
9934;SDS011;5006;41.828;23.478;2023-03-03T00:46:51;7.40;;;6.43;;
9934;SDS011;5006;41.828;23.478;2023-03-03T00:47:57;7.63;;;6.80;;
9934;SDS011;5006;41.828;23.478;2023-03-03T00:49:14;8.00;;;6.93;;
9934;SDS011;5006;41.828;23.478;2023-03-03T00:50:32;7.32;;;6.38;;
9934;SDS011;5006;41.828;23.478;2023-03-03T00:51:41;7.35;;;6.55;;
9934;SDS011;5006;41.828;23.478;2023-03-03T00:52:51;6.60;;;5.97;;
9934;SDS011;5006;41.828;23.478;2023-03-03T00:54:04;6.38;;;5.60;;
9934;SDS011;5006;41.828;23.478;2023-03-03T00:55:09;10.32;;;6.25;;
9934;SDS011;5006;41.828;23.478;2023-03-03T00:56:15;6.50;;;5.85;;
9934;SDS011;5006;41.828;23.478;2023-03-03T00:57:21;6.20;;;5.25;;
9934;SDS011;5006;41.828;23.478;2023-03-03T00:58:25;5.85;;;4.88;;
9934;SDS011;5006;41.828;23.478;2023-03-03T00:59:31;5.72;;;5.03;;
9934;SDS011;5006;41.828;23.478;2023-03-03T01:00:36;5.93;;;5.30;;
9934;SDS011;5006;41.828;23.478;2023-03-03T01:01:44;6.32;;;5.03;;
9934;SDS011;5006;41.828;23.478;2023-03-03T01:02:48;7.88;;;5.50;;
9934;SDS011;5006;41.828;23.478;2023-03-03T01:03:55;7.75;;;5.80;;
9934;SDS011;5006;41.828;23.478;2023-03-03T01:05:00;9.02;;;5.55;;
9934;SDS011;5006;41.828;23.478;2023-03-03T01:06:05;5.45;;;4.95;;
9934;SDS011;5006;41.828;23.478;2023-03-03T01:07:13;6.55;;;5.55;;
9934;SDS011;5006;41.828;23.478;2023-03-03T01:08:18;6.20;;;5.13;;
9934;SDS011;5006;41.828;23.478;2023-03-03T01:09:25;5.95;;;5.30;;
9934;SDS011;5006;41.828;23.478;2023-03-03T01:10:32;5.57;;;4.90;;
9934;SDS011;5006;41.828;23.478;2023-03-03T01:11:40;5.57;;;5.05;;
9934;SDS011;5006;41.828;23.478;2023-03-03T01:12:44;6.03;;;5.28;;
9934;SDS011;5006;41.828;23.478;2023-03-03T01:13:50;6.70;;;5.53;;
9934;SDS011;5006;41.828;23.478;2023-03-03T01:14:55;5.47;;;4.95;;
9934;SDS011;5006;41.828;23.478;2023-03-03T01:16:02;5.25;;;4.75;;
9934;SDS011;5006;41.828;23.478;2023-03-03T01:17:07;5.65;;;5.07;;
9934;SDS011;5006;41.828;23.478;2023-03-03T01:18:13;5.72;;;4.80;;
9934;SDS011;5006;41.828;23.478;2023-03-03T01:19:17;5.68;;;5.07;;
9934;SDS011;5006;41.828;23.478;2023-03-03T01:20:23;5.22;;;4.72;;
9934;SDS011;5006;41.828;23.478;2023-03-03T01:21:28;6.78;;;5.32;;
9934;SDS011;5006;41.828;23.478;2023-03-03T01:22:35;5.10;;;4.50;;
9934;SDS011;5006;41.828;23.478;2023-03-03T01:23:40;5.30;;;4.80;;
9934;SDS011;5006;41.828;23.478;2023-03-03T01:24:45;5.47;;;4.90;;
9934;SDS011;5006;41.828;23.478;2023-03-03T01:25:50;5.30;;;4.57;;
9934;SDS011;5006;41.828;23.478;2023-03-03T01:26:56;5.15;;;4.65;;
9934;SDS011;5006;41.828;23.478;2023-03-03T01:28:00;6.53;;;5.43;;
9934;SDS011;5006;41.828;23.478;2023-03-03T01:29:06;6.43;;;5.35;;
9934;SDS011;5006;41.828;23.478;2023-03-03T01:30:11;7.10;;;5.22;;
9934;SDS011;5006;41.828;23.478;2023-03-03T01:31:17;5.80;;;5.20;;
9934;SDS011;5006;41.828;23.478;2023-03-03T01:32:22;6.82;;;5.43;;
9934;SDS011;5006;41.828;23.478;2023-03-03T01:33:28;8.15;;;5.47;;
9934;SDS011;5006;41.828;23.478;2023-03-03T01:34:33;6.20;;;5.20;;
9934;SDS011;5006;41.828;23.478;2023-03-03T01:35:42;6.35;;;4.97;;
9934;SDS011;5006;41.828;23.478;2023-03-03T01:36:47;6.30;;;4.50;;
9934;SDS011;5006;41.828;23.478;2023-03-03T01:37:54;6.05;;;4.97;;
9934;SDS011;5006;41.828;23.478;2023-03-03T01:39:00;7.20;;;4.72;;
9934;SDS011;5006;41.828;23.478;2023-03-03T01:40:06;6.65;;;5.20;;
9934;SDS011;5006;41.828;23.478;2023-03-03T01:41:17;5.18;;;4.55;;
9934;SDS011;5006;41.828;23.478;2023-03-03T01:42:22;5.78;;;4.78;;
9934;SDS011;5006;41.828;23.478;2023-03-03T01:43:32;7.32;;;4.90;;
9934;SDS011;5006;41.828;23.478;2023-03-03T01:44:36;6.47;;;4.75;;
9934;SDS011;5006;41.828;23.478;2023-03-03T01:45:44;8.88;;;4.85;;
9934;SDS011;5006;41.828;23.478;2023-03-03T01:47:29;8.88;;;4.75;;
9934;SDS011;5006;41.828;23.478;2023-03-03T01:48:37;6.63;;;4.80;;
9934;SDS011;5006;41.828;23.478;2023-03-03T01:49:47;7.13;;;5.10;;
9934;SDS011;5006;41.828;23.478;2023-03-03T01:50:58;10.82;;;5.50;;
9934;SDS011;5006;41.828;23.478;2023-03-03T01:52:09;6.70;;;4.93;;
9934;SDS011;5006;41.828;23.478;2023-03-03T01:53:17;8.63;;;5.57;;
9934;SDS011;5006;41.828;23.478;2023-03-03T01:54:27;8.20;;;5.53;;
9934;SDS011;5006;41.828;23.478;2023-03-03T01:55:38;8.88;;;5.65;;
9934;SDS011;5006;41.828;23.478;2023-03-03T01:56:45;11.80;;;5.65;;
9934;SDS011;5006;41.828;23.478;2023-03-03T01:57:51;10.95;;;6.88;;
9934;SDS011;5006;41.828;23.478;2023-03-03T01:59:02;11.85;;;7.30;;
9934;SDS011;5006;41.828;23.478;2023-03-03T02:00:10;13.80;;;8.18;;
9934;SDS011;5006;41.828;23.478;2023-03-03T02:01:18;12.75;;;8.38;;
9934;SDS011;5006;41.828;23.478;2023-03-03T02:02:25;11.02;;;7.68;;
9934;SDS011;5006;41.828;23.478;2023-03-03T02:03:34;15.55;;;8.35;;
9934;SDS011;5006;41.828;23.478;2023-03-03T02:04:39;12.55;;;8.20;;
9934;SDS011;5006;41.828;23.478;2023-03-03T02:05:45;11.93;;;8.52;;
9934;SDS011;5006;41.828;23.478;2023-03-03T02:06:50;16.17;;;8.32;;
9934;SDS011;5006;41.828;23.478;2023-03-03T02:07:59;14.00;;;8.10;;
9934;SDS011;5006;41.828;23.478;2023-03-03T02:09:06;11.70;;;7.47;;
9934;SDS011;5006;41.828;23.478;2023-03-03T02:10:17;12.60;;;7.55;;
9934;SDS011;5006;41.828;23.478;2023-03-03T02:11:26;13.05;;;8.10;;
9934;SDS011;5006;41.828;23.478;2023-03-03T02:12:35;11.73;;;8.15;;
9934;SDS011;5006;41.828;23.478;2023-03-03T02:13:42;11.40;;;7.63;;
9934;SDS011;5006;41.828;23.478;2023-03-03T02:14:47;14.48;;;7.63;;
9934;SDS011;5006;41.828;23.478;2023-03-03T02:15:52;11.32;;;7.70;;
9934;SDS011;5006;41.828;23.478;2023-03-03T02:16:59;15.13;;;7.90;;
9934;SDS011;5006;41.828;23.478;2023-03-03T02:18:05;10.18;;;7.47;;
9934;SDS011;5006;41.828;23.478;2023-03-03T02:19:18;13.80;;;8.73;;
9934;SDS011;5006;41.828;23.478;2023-03-03T02:20:34;11.30;;;8.07;;
9934;SDS011;5006;41.828;23.478;2023-03-03T02:21:49;10.82;;;7.85;;
9934;SDS011;5006;41.828;23.478;2023-03-03T02:22:54;16.30;;;8.88;;
9934;SDS011;5006;41.828;23.478;2023-03-03T02:24:04;12.10;;;7.78;;
9934;SDS011;5006;41.828;23.478;2023-03-03T02:25:17;12.30;;;8.20;;
9934;SDS011;5006;41.828;23.478;2023-03-03T02:26:30;15.65;;;7.70;;
9934;SDS011;5006;41.828;23.478;2023-03-03T02:27:42;13.35;;;8.15;;
9934;SDS011;5006;41.828;23.478;2023-03-03T02:28:48;12.93;;;8.35;;
9934;SDS011;5006;41.828;23.478;2023-03-03T02:29:54;11.80;;;8.23;;
9934;SDS011;5006;41.828;23.478;2023-03-03T02:31:01;10.88;;;8.02;;
9934;SDS011;5006;41.828;23.478;2023-03-03T02:32:06;13.90;;;7.90;;
9934;SDS011;5006;41.828;23.478;2023-03-03T02:33:12;10.45;;;7.65;;
9934;SDS011;5006;41.828;23.478;2023-03-03T02:34:17;12.35;;;8.02;;
9934;SDS011;5006;41.828;23.478;2023-03-03T02:35:30;11.43;;;7.75;;
9934;SDS011;5006;41.828;23.478;2023-03-03T02:36:37;10.95;;;8.18;;
9934;SDS011;5006;41.828;23.478;2023-03-03T02:37:44;11.48;;;7.68;;
9934;SDS011;5006;41.828;23.478;2023-03-03T02:38:50;11.95;;;7.78;;
9934;SDS011;5006;41.828;23.478;2023-03-03T02:40:01;10.55;;;7.57;;
9934;SDS011;5006;41.828;23.478;2023-03-03T02:41:08;12.00;;;8.18;;
9934;SDS011;5006;41.828;23.478;2023-03-03T02:42:19;12.43;;;8.15;;
9934;SDS011;5006;41.828;23.478;2023-03-03T02:43:32;13.40;;;7.72;;
9934;SDS011;5006;41.828;23.478;2023-03-03T02:44:44;11.95;;;7.53;;
9934;SDS011;5006;41.828;23.478;2023-03-03T02:45:50;12.23;;;7.68;;
9934;SDS011;5006;41.828;23.478;2023-03-03T02:46:55;14.38;;;7.93;;
9934;SDS011;5006;41.828;23.478;2023-03-03T02:48:02;12.40;;;7.75;;
9934;SDS011;5006;41.828;23.478;2023-03-03T02:49:07;12.32;;;7.63;;
9934;SDS011;5006;41.828;23.478;2023-03-03T02:50:15;10.65;;;7.53;;
9934;SDS011;5006;41.828;23.478;2023-03-03T02:51:20;11.48;;;7.68;;
9934;SDS011;5006;41.828;23.478;2023-03-03T02:52:26;14.13;;;7.90;;
9934;SDS011;5006;41.828;23.478;2023-03-03T02:53:30;12.45;;;8.07;;
9934;SDS011;5006;41.828;23.478;2023-03-03T02:54:36;11.20;;;7.57;;
9934;SDS011;5006;41.828;23.478;2023-03-03T02:55:41;9.82;;;7.68;;
9934;SDS011;5006;41.828;23.478;2023-03-03T02:56:47;13.98;;;7.75;;
9934;SDS011;5006;41.828;23.478;2023-03-03T02:57:53;11.07;;;7.35;;
9934;SDS011;5006;41.828;23.478;2023-03-03T02:58:59;15.10;;;7.43;;
9934;SDS011;5006;41.828;23.478;2023-03-03T03:00:06;14.43;;;7.60;;
9934;SDS011;5006;41.828;23.478;2023-03-03T03:01:13;11.32;;;7.00;;
9934;SDS011;5006;41.828;23.478;2023-03-03T03:02:19;11.57;;;7.45;;
9934;SDS011;5006;41.828;23.478;2023-03-03T03:03:25;12.90;;;7.70;;
9934;SDS011;5006;41.828;23.478;2023-03-03T03:04:29;16.15;;;7.20;;
9934;SDS011;5006;41.828;23.478;2023-03-03T03:05:36;11.05;;;8.27;;
9934;SDS011;5006;41.828;23.478;2023-03-03T03:06:41;13.13;;;9.82;;
9934;SDS011;5006;41.828;23.478;2023-03-03T03:07:48;23.65;;;16.95;;
9934;SDS011;5006;41.828;23.478;2023-03-03T03:08:53;33.90;;;25.27;;
9934;SDS011;5006;41.828;23.478;2023-03-03T03:09:59;34.33;;;23.73;;
9934;SDS011;5006;41.828;23.478;2023-03-03T03:11:06;25.35;;;18.30;;
9934;SDS011;5006;41.828;23.478;2023-03-03T03:12:12;16.20;;;12.80;;
9934;SDS011;5006;41.828;23.478;2023-03-03T03:13:20;18.70;;;14.18;;
9934;SDS011;5006;41.828;23.478;2023-03-03T03:14:26;28.55;;;20.80;;
9934;SDS011;5006;41.828;23.478;2023-03-03T03:15:34;18.95;;;12.45;;
9934;SDS011;5006;41.828;23.478;2023-03-03T03:16:41;14.57;;;10.90;;
9934;SDS011;5006;41.828;23.478;2023-03-03T03:17:45;12.45;;;9.68;;
9934;SDS011;5006;41.828;23.478;2023-03-03T03:19:09;13.02;;;8.40;;
9934;SDS011;5006;41.828;23.478;2023-03-03T03:20:16;8.38;;;6.70;;
9934;SDS011;5006;41.828;23.478;2023-03-03T03:21:22;8.75;;;6.28;;
9934;SDS011;5006;41.828;23.478;2023-03-03T03:22:27;6.05;;;5.13;;
9934;SDS011;5006;41.828;23.478;2023-03-03T03:23:33;8.10;;;5.50;;
9934;SDS011;5006;41.828;23.478;2023-03-03T03:24:39;7.13;;;5.35;;
9934;SDS011;5006;41.828;23.478;2023-03-03T03:25:46;5.95;;;5.35;;
9934;SDS011;5006;41.828;23.478;2023-03-03T03:26:59;6.13;;;4.93;;
9934;SDS011;5006;41.828;23.478;2023-03-03T03:28:05;5.20;;;4.70;;
9934;SDS011;5006;41.828;23.478;2023-03-03T03:29:12;5.20;;;4.20;;
9934;SDS011;5006;41.828;23.478;2023-03-03T03:30:17;4.32;;;3.92;;
9934;SDS011;5006;41.828;23.478;2023-03-03T03:31:24;5.97;;;4.85;;
9934;SDS011;5006;41.828;23.478;2023-03-03T03:32:29;5.00;;;4.25;;
9934;SDS011;5006;41.828;23.478;2023-03-03T03:33:35;5.05;;;4.55;;
9934;SDS011;5006;41.828;23.478;2023-03-03T03:34:40;5.82;;;4.50;;
9934;SDS011;5006;41.828;23.478;2023-03-03T03:35:47;5.82;;;4.72;;
9934;SDS011;5006;41.828;23.478;2023-03-03T03:36:54;5.25;;;4.75;;
9934;SDS011;5006;41.828;23.478;2023-03-03T03:38:02;5.15;;;4.65;;
9934;SDS011;5006;41.828;23.478;2023-03-03T03:39:07;5.65;;;4.38;;
9934;SDS011;5006;41.828;23.478;2023-03-03T03:40:17;5.20;;;4.50;;
9934;SDS011;5006;41.828;23.478;2023-03-03T03:41:22;6.43;;;5.38;;
9934;SDS011;5006;41.828;23.478;2023-03-03T03:42:28;7.38;;;4.60;;
9934;SDS011;5006;41.828;23.478;2023-03-03T03:43:34;7.78;;;4.95;;
9934;SDS011;5006;41.828;23.478;2023-03-03T03:44:41;6.32;;;5.43;;
9934;SDS011;5006;41.828;23.478;2023-03-03T03:45:46;7.22;;;5.85;;
9934;SDS011;5006;41.828;23.478;2023-03-03T03:46:53;6.90;;;5.72;;
9934;SDS011;5006;41.828;23.478;2023-03-03T03:47:58;7.47;;;5.80;;
9934;SDS011;5006;41.828;23.478;2023-03-03T03:49:03;8.40;;;6.10;;
9934;SDS011;5006;41.828;23.478;2023-03-03T03:50:08;7.88;;;6.10;;
9934;SDS011;5006;41.828;23.478;2023-03-03T03:51:15;8.38;;;6.30;;
9934;SDS011;5006;41.828;23.478;2023-03-03T03:52:20;6.82;;;6.10;;
9934;SDS011;5006;41.828;23.478;2023-03-03T03:53:26;8.20;;;6.75;;
9934;SDS011;5006;41.828;23.478;2023-03-03T03:54:31;7.03;;;6.03;;
9934;SDS011;5006;41.828;23.478;2023-03-03T03:55:37;7.60;;;6.38;;
9934;SDS011;5006;41.828;23.478;2023-03-03T03:56:43;9.25;;;7.38;;
9934;SDS011;5006;41.828;23.478;2023-03-03T03:57:47;9.38;;;7.38;;
9934;SDS011;5006;41.828;23.478;2023-03-03T03:58:53;7.55;;;6.57;;
9934;SDS011;5006;41.828;23.478;2023-03-03T04:00:00;7.25;;;6.20;;
9934;SDS011;5006;41.828;23.478;2023-03-03T04:01:06;6.80;;;6.07;;
9934;SDS011;5006;41.828;23.478;2023-03-03T04:02:15;8.05;;;6.18;;
9934;SDS011;5006;41.828;23.478;2023-03-03T04:03:21;7.57;;;6.55;;
9934;SDS011;5006;41.828;23.478;2023-03-03T04:04:26;8.85;;;6.10;;
9934;SDS011;5006;41.828;23.478;2023-03-03T04:05:32;7.15;;;6.10;;
9934;SDS011;5006;41.828;23.478;2023-03-03T04:06:37;7.03;;;6.32;;
9934;SDS011;5006;41.828;23.478;2023-03-03T04:07:44;7.38;;;6.32;;
9934;SDS011;5006;41.828;23.478;2023-03-03T04:08:49;7.00;;;6.28;;
9934;SDS011;5006;41.828;23.478;2023-03-03T04:09:57;8.23;;;6.13;;
9934;SDS011;5006;41.828;23.478;2023-03-03T04:11:03;7.78;;;6.85;;
9934;SDS011;5006;41.828;23.478;2023-03-03T04:12:08;8.45;;;7.07;;
9934;SDS011;5006;41.828;23.478;2023-03-03T04:13:15;7.35;;;6.28;;
9934;SDS011;5006;41.828;23.478;2023-03-03T04:14:20;7.65;;;5.57;;
9934;SDS011;5006;41.828;23.478;2023-03-03T04:15:27;10.73;;;6.00;;
9934;SDS011;5006;41.828;23.478;2023-03-03T04:16:32;6.63;;;5.50;;
9934;SDS011;5006;41.828;23.478;2023-03-03T04:17:39;7.43;;;5.60;;
9934;SDS011;5006;41.828;23.478;2023-03-03T04:18:45;6.45;;;5.70;;
9934;SDS011;5006;41.828;23.478;2023-03-03T04:19:52;6.25;;;5.65;;
9934;SDS011;5006;41.828;23.478;2023-03-03T04:20:57;8.25;;;5.95;;
9934;SDS011;5006;41.828;23.478;2023-03-03T04:22:04;6.50;;;5.78;;
9934;SDS011;5006;41.828;23.478;2023-03-03T04:23:10;8.40;;;6.75;;
9934;SDS011;5006;41.828;23.478;2023-03-03T04:24:16;9.18;;;7.50;;
9934;SDS011;5006;41.828;23.478;2023-03-03T04:25:23;9.43;;;7.93;;
9934;SDS011;5006;41.828;23.478;2023-03-03T04:26:30;8.07;;;7.28;;
9934;SDS011;5006;41.828;23.478;2023-03-03T04:27:36;8.07;;;7.28;;
9934;SDS011;5006;41.828;23.478;2023-03-03T04:28:43;7.95;;;7.15;;
9934;SDS011;5006;41.828;23.478;2023-03-03T04:29:49;9.43;;;7.95;;
9934;SDS011;5006;41.828;23.478;2023-03-03T04:30:55;7.45;;;6.75;;
9934;SDS011;5006;41.828;23.478;2023-03-03T04:32:02;7.93;;;6.43;;
9934;SDS011;5006;41.828;23.478;2023-03-03T04:33:06;7.72;;;5.97;;
9934;SDS011;5006;41.828;23.478;2023-03-03T04:34:14;7.15;;;6.10;;
9934;SDS011;5006;41.828;23.478;2023-03-03T04:35:21;6.38;;;5.78;;
9934;SDS011;5006;41.828;23.478;2023-03-03T04:36:26;6.15;;;5.55;;
9934;SDS011;5006;41.828;23.478;2023-03-03T04:37:32;6.90;;;5.82;;
9934;SDS011;5006;41.828;23.478;2023-03-03T04:38:37;6.10;;;5.50;;
9934;SDS011;5006;41.828;23.478;2023-03-03T04:39:43;6.10;;;5.50;;
9934;SDS011;5006;41.828;23.478;2023-03-03T04:40:48;7.13;;;5.70;;
9934;SDS011;5006;41.828;23.478;2023-03-03T04:41:55;7.22;;;6.13;;
9934;SDS011;5006;41.828;23.478;2023-03-03T04:42:59;6.30;;;5.22;;
9934;SDS011;5006;41.828;23.478;2023-03-03T04:44:05;7.65;;;6.18;;
9934;SDS011;5006;41.828;23.478;2023-03-03T04:45:10;6.55;;;5.75;;
9934;SDS011;5006;41.828;23.478;2023-03-03T04:46:17;5.90;;;5.30;;
9934;SDS011;5006;41.828;23.478;2023-03-03T04:47:22;6.60;;;5.82;;
9934;SDS011;5006;41.828;23.478;2023-03-03T04:48:28;6.72;;;5.80;;
9934;SDS011;5006;41.828;23.478;2023-03-03T04:49:33;5.35;;;4.85;;
9934;SDS011;5006;41.828;23.478;2023-03-03T04:50:40;7.55;;;5.72;;
9934;SDS011;5006;41.828;23.478;2023-03-03T04:51:45;7.43;;;5.55;;
9934;SDS011;5006;41.828;23.478;2023-03-03T04:52:51;6.28;;;5.53;;
9934;SDS011;5006;41.828;23.478;2023-03-03T04:53:56;6.43;;;5.30;;
9934;SDS011;5006;41.828;23.478;2023-03-03T04:55:02;6.25;;;5.18;;
9934;SDS011;5006;41.828;23.478;2023-03-03T04:56:08;8.73;;;6.10;;
9934;SDS011;5006;41.828;23.478;2023-03-03T04:57:14;7.50;;;6.22;;
9934;SDS011;5006;41.828;23.478;2023-03-03T04:58:19;6.32;;;5.60;;
9934;SDS011;5006;41.828;23.478;2023-03-03T04:59:25;7.18;;;6.28;;
9934;SDS011;5006;41.828;23.478;2023-03-03T05:00:30;6.72;;;6.03;;
9934;SDS011;5006;41.828;23.478;2023-03-03T05:01:39;6.47;;;5.70;;
9934;SDS011;5006;41.828;23.478;2023-03-03T05:02:44;6.05;;;5.45;;
9934;SDS011;5006;41.828;23.478;2023-03-03T05:03:52;6.22;;;5.53;;
9934;SDS011;5006;41.828;23.478;2023-03-03T05:04:57;7.00;;;5.85;;
9934;SDS011;5006;41.828;23.478;2023-03-03T05:06:03;9.40;;;6.20;;
9934;SDS011;5006;41.828;23.478;2023-03-03T05:07:08;7.47;;;5.95;;
9934;SDS011;5006;41.828;23.478;2023-03-03T05:08:14;6.97;;;6.28;;
9934;SDS011;5006;41.828;23.478;2023-03-03T05:09:19;6.95;;;5.80;;
9934;SDS011;5006;41.828;23.478;2023-03-03T05:10:25;7.38;;;5.82;;
9934;SDS011;5006;41.828;23.478;2023-03-03T05:11:30;8.57;;;5.97;;
9934;SDS011;5006;41.828;23.478;2023-03-03T05:12:36;7.30;;;6.50;;
9934;SDS011;5006;41.828;23.478;2023-03-03T05:13:41;6.57;;;5.88;;
9934;SDS011;5006;41.828;23.478;2023-03-03T05:14:46;8.35;;;6.13;;
9934;SDS011;5006;41.828;23.478;2023-03-03T05:15:51;6.45;;;5.43;;
9934;SDS011;5006;41.828;23.478;2023-03-03T05:17:01;6.30;;;5.50;;
9934;SDS011;5006;41.828;23.478;2023-03-03T05:18:06;6.88;;;5.32;;
9934;SDS011;5006;41.828;23.478;2023-03-03T05:19:11;5.68;;;5.07;;
9934;SDS011;5006;41.828;23.478;2023-03-03T05:20:16;6.35;;;5.65;;
9934;SDS011;5006;41.828;23.478;2023-03-03T05:21:22;7.05;;;5.10;;
9934;SDS011;5006;41.828;23.478;2023-03-03T05:22:26;6.57;;;5.30;;
9934;SDS011;5006;41.828;23.478;2023-03-03T05:23:32;5.38;;;4.88;;
9934;SDS011;5006;41.828;23.478;2023-03-03T05:24:38;7.80;;;6.03;;
9934;SDS011;5006;41.828;23.478;2023-03-03T05:25:43;6.80;;;5.93;;
9934;SDS011;5006;41.828;23.478;2023-03-03T05:26:49;7.82;;;6.18;;
9934;SDS011;5006;41.828;23.478;2023-03-03T05:27:54;6.97;;;6.32;;
9934;SDS011;5006;41.828;23.478;2023-03-03T05:28:59;7.57;;;6.18;;
9934;SDS011;5006;41.828;23.478;2023-03-03T05:30:05;8.68;;;6.68;;
9934;SDS011;5006;41.828;23.478;2023-03-03T05:31:12;7.80;;;6.47;;
9934;SDS011;5006;41.828;23.478;2023-03-03T05:32:18;7.43;;;6.65;;
9934;SDS011;5006;41.828;23.478;2023-03-03T05:33:24;7.95;;;7.03;;
9934;SDS011;5006;41.828;23.478;2023-03-03T05:34:29;8.35;;;7.45;;
9934;SDS011;5006;41.828;23.478;2023-03-03T05:35:34;9.07;;;7.60;;
9934;SDS011;5006;41.828;23.478;2023-03-03T05:36:39;8.48;;;7.53;;
9934;SDS011;5006;41.828;23.478;2023-03-03T05:37:44;11.15;;;9.52;;
9934;SDS011;5006;41.828;23.478;2023-03-03T05:38:50;11.95;;;10.27;;
9934;SDS011;5006;41.828;23.478;2023-03-03T05:39:56;13.15;;;10.82;;
9934;SDS011;5006;41.828;23.478;2023-03-03T05:41:01;20.77;;;14.70;;
9934;SDS011;5006;41.828;23.478;2023-03-03T05:42:06;17.10;;;13.85;;
9934;SDS011;5006;41.828;23.478;2023-03-03T05:43:12;18.20;;;14.02;;
9934;SDS011;5006;41.828;23.478;2023-03-03T05:44:18;29.17;;;19.63;;
9934;SDS011;5006;41.828;23.478;2023-03-03T05:45:23;26.52;;;20.67;;
9934;SDS011;5006;41.828;23.478;2023-03-03T05:46:29;20.13;;;17.48;;
9934;SDS011;5006;41.828;23.478;2023-03-03T05:47:34;17.83;;;14.77;;
9934;SDS011;5006;41.828;23.478;2023-03-03T05:48:40;18.73;;;15.88;;
9934;SDS011;5006;41.828;23.478;2023-03-03T05:49:45;23.73;;;20.60;;
9934;SDS011;5006;41.828;23.478;2023-03-03T05:50:52;24.27;;;18.50;;
9934;SDS011;5006;41.828;23.478;2023-03-03T05:51:58;24.15;;;19.60;;
9934;SDS011;5006;41.828;23.478;2023-03-03T05:53:03;23.63;;;20.45;;
9934;SDS011;5006;41.828;23.478;2023-03-03T05:54:09;22.02;;;19.33;;
9934;SDS011;5006;41.828;23.478;2023-03-03T05:55:14;19.58;;;16.90;;
9934;SDS011;5006;41.828;23.478;2023-03-03T05:56:20;15.25;;;13.65;;
9934;SDS011;5006;41.828;23.478;2023-03-03T05:57:25;13.85;;;12.35;;
9934;SDS011;5006;41.828;23.478;2023-03-03T05:58:31;18.85;;;16.40;;
9934;SDS011;5006;41.828;23.478;2023-03-03T05:59:36;17.15;;;14.20;;
9934;SDS011;5006;41.828;23.478;2023-03-03T06:00:41;17.58;;;15.57;;
9934;SDS011;5006;41.828;23.478;2023-03-03T06:01:47;18.40;;;16.50;;
9934;SDS011;5006;41.828;23.478;2023-03-03T06:02:53;18.90;;;16.92;;
9934;SDS011;5006;41.828;23.478;2023-03-03T06:03:59;23.02;;;20.55;;
9934;SDS011;5006;41.828;23.478;2023-03-03T06:05:04;21.73;;;18.60;;
9934;SDS011;5006;41.828;23.478;2023-03-03T06:06:10;21.35;;;18.50;;
9934;SDS011;5006;41.828;23.478;2023-03-03T06:07:17;20.00;;;17.70;;
9934;SDS011;5006;41.828;23.478;2023-03-03T06:08:22;20.27;;;17.83;;
9934;SDS011;5006;41.828;23.478;2023-03-03T06:09:27;20.65;;;18.38;;
9934;SDS011;5006;41.828;23.478;2023-03-03T06:10:33;20.30;;;18.20;;
9934;SDS011;5006;41.828;23.478;2023-03-03T06:11:41;20.70;;;18.50;;
9934;SDS011;5006;41.828;23.478;2023-03-03T06:12:46;23.02;;;20.42;;
9934;SDS011;5006;41.828;23.478;2023-03-03T06:13:51;21.67;;;19.38;;
9934;SDS011;5006;41.828;23.478;2023-03-03T06:14:56;25.83;;;23.10;;
9934;SDS011;5006;41.828;23.478;2023-03-03T06:16:02;31.90;;;26.95;;
9934;SDS011;5006;41.828;23.478;2023-03-03T06:17:08;21.10;;;18.90;;
9934;SDS011;5006;41.828;23.478;2023-03-03T06:18:14;14.88;;;13.43;;
9934;SDS011;5006;41.828;23.478;2023-03-03T06:19:20;16.30;;;14.60;;
9934;SDS011;5006;41.828;23.478;2023-03-03T06:20:25;15.15;;;13.60;;
9934;SDS011;5006;41.828;23.478;2023-03-03T06:21:30;17.40;;;15.60;;
9934;SDS011;5006;41.828;23.478;2023-03-03T06:22:35;12.68;;;11.38;;
9934;SDS011;5006;41.828;23.478;2023-03-03T06:23:41;10.02;;;9.13;;
9934;SDS011;5006;41.828;23.478;2023-03-03T06:24:45;13.00;;;11.70;;
9934;SDS011;5006;41.828;23.478;2023-03-03T06:25:51;11.38;;;10.25;;
9934;SDS011;5006;41.828;23.478;2023-03-03T06:26:56;8.75;;;7.85;;
9934;SDS011;5006;41.828;23.478;2023-03-03T06:28:03;8.95;;;8.05;;
9934;SDS011;5006;41.828;23.478;2023-03-03T06:29:08;12.32;;;11.02;;
9934;SDS011;5006;41.828;23.478;2023-03-03T06:30:14;12.40;;;11.10;;
9934;SDS011;5006;41.828;23.478;2023-03-03T06:31:19;8.18;;;7.38;;
9934;SDS011;5006;41.828;23.478;2023-03-03T06:32:25;9.18;;;8.35;;
9934;SDS011;5006;41.828;23.478;2023-03-03T06:33:32;7.38;;;6.78;;
9934;SDS011;5006;41.828;23.478;2023-03-03T06:34:37;7.45;;;6.75;;
9934;SDS011;5006;41.828;23.478;2023-03-03T06:35:42;7.80;;;7.07;;
9934;SDS011;5006;41.828;23.478;2023-03-03T06:36:48;7.85;;;7.15;;
9934;SDS011;5006;41.828;23.478;2023-03-03T06:37:55;8.93;;;8.13;;
9934;SDS011;5006;41.828;23.478;2023-03-03T06:39:00;8.85;;;8.05;;
9934;SDS011;5006;41.828;23.478;2023-03-03T06:40:06;9.23;;;8.35;;
9934;SDS011;5006;41.828;23.478;2023-03-03T06:41:12;9.38;;;8.48;;
9934;SDS011;5006;41.828;23.478;2023-03-03T06:42:18;8.93;;;8.13;;
9934;SDS011;5006;41.828;23.478;2023-03-03T06:43:24;8.88;;;8.07;;
9934;SDS011;5006;41.828;23.478;2023-03-03T06:44:29;8.55;;;7.75;;
9934;SDS011;5006;41.828;23.478;2023-03-03T06:45:34;7.40;;;6.70;;
9934;SDS011;5006;41.828;23.478;2023-03-03T06:46:40;7.50;;;6.70;;